Time;durP1;ratioP1;P1;durP2;ratioP2;P2;SDS_P1;SDS_P2;PMS_P1;PMS_P2;Temp;Humidity;BMP_temperature;BMP_pressure;BME280_temperature;BME280_humidity;BME280_pressure;Samples;Min_cycle;Max_cycle;Signal;HPM_P1;HPM_P2
2023/12/28 00:01:38;;;;;;;16.60;11.70;;;;;;;10.74;74.39;102343.50;4938337;28;20051;-80
2023/12/28 00:04:09;;;;;;;19.17;13.30;;;;;;;10.74;75.43;102352.31;4878298;28;20059;-81
2023/12/28 00:06:36;;;;;;;21.50;14.38;;;;;;;10.63;75.98;102349.44;4942374;28;20491;-81
2023/12/28 00:09:03;;;;;;;21.98;13.82;;;;;;;10.07;75.33;102251.03;4924727;28;20046;-81
2023/12/28 00:11:38;;;;;;;22.48;15.07;;;;;;;10.65;75.76;102347.56;4934442;28;20061;-80
2023/12/28 00:14:05;;;;;;;19.33;13.32;;;;;;;10.60;75.09;102341.69;4937494;28;20565;-80
2023/12/28 00:16:37;;;;;;;18.83;13.45;;;;;;;10.67;75.88;102350.97;4925697;28;20105;-80
2023/12/28 00:19:04;;;;;;;24.02;15.02;;;;;;;10.62;75.79;102359.22;4945411;28;20054;-79
2023/12/28 00:21:31;;;;;;;21.13;13.45;;;;;;;10.64;75.88;102356.47;4952338;28;20059;-80
2023/12/28 00:23:58;;;;;;;19.55;12.40;;;;;;;10.56;75.71;102342.81;4957709;28;20050;-80
2023/12/28 00:26:25;;;;;;;18.25;12.55;;;;;;;10.66;75.11;102358.09;4929324;28;20047;-80
2023/12/28 00:28:52;;;;;;;14.05;10.50;;;;;;;10.67;73.93;102364.25;4924466;28;20054;-80
2023/12/28 00:31:22;;;;;;;17.52;11.27;;;;;;;10.48;74.27;102333.53;4953699;28;20062;-79
2023/12/28 00:33:50;;;;;;;16.00;10.05;;;;;;;10.32;73.92;102303.53;4931027;28;20638;-82
2023/12/28 00:36:18;;;;;;;16.23;10.07;;;;;;;10.65;72.46;102353.72;4951488;28;20051;-82
2023/12/28 00:38:44;;;;;;;13.63;9.18;;;;;;;10.61;71.54;102343.41;4918548;28;20049;-79
2023/12/28 00:41:14;;;;;;;15.07;9.23;;;;;;;10.61;71.48;102336.28;4917646;28;20081;-81
2023/12/28 00:43:41;;;;;;;10.25;8.50;;;;;;;10.66;71.08;102339.50;4959193;28;20056;-82
2023/12/28 00:46:08;;;;;;;13.38;8.60;;;;;;;10.04;70.69;102230.84;4928100;28;20051;-80
2023/12/28 00:48:34;;;;;;;13.45;8.55;;;;;;;10.79;69.78;102358.19;4925005;28;20047;-81
2023/12/28 00:51:01;;;;;;;13.30;8.93;;;;;;;10.69;69.48;102344.63;4927707;28;20573;-83
2023/12/28 00:53:34;;;;;;;10.98;8.27;;;;;;;10.40;69.54;102298.59;4920707;28;20055;-81
2023/12/28 00:56:01;;;;;;;11.15;7.97;;;;;;;10.71;69.50;102351.66;4922032;28;20102;-80
2023/12/28 00:58:27;;;;;;;12.13;8.40;;;;;;;10.73;69.55;102347.97;4938479;28;20055;-82
2023/12/28 01:00:58;;;;;;;11.18;8.40;;;;;;;10.57;69.27;102333.91;4919403;28;20161;-83
2023/12/28 01:03:26;;;;;;;10.70;7.70;;;;;;;10.63;69.12;102352.97;4922951;28;20090;-81
2023/12/28 01:05:53;;;;;;;10.65;7.43;;;;;;;10.58;69.09;102340.91;4913016;28;20070;-81
2023/12/28 01:08:22;;;;;;;14.77;9.75;;;;;;;10.38;69.24;102308.47;4917485;28;20343;-82
2023/12/28 01:10:49;;;;;;;12.98;8.20;;;;;;;10.27;69.05;102300.28;4921939;28;20454;-82
2023/12/28 01:13:16;;;;;;;12.82;8.93;;;;;;;10.35;69.56;102329.91;4923643;28;20070;-82
2023/12/28 01:15:43;;;;;;;14.20;7.90;;;;;;;10.26;69.94;102331.25;4921778;29;20405;-82
2023/12/28 01:18:09;;;;;;;11.23;8.35;;;;;;;10.38;69.60;102344.78;4903805;29;20047;-81
2023/12/28 01:20:42;;;;;;;15.82;8.68;;;;;;;10.33;69.29;102347.72;4901357;29;20359;-81
2023/12/28 01:23:11;;;;;;;10.80;7.32;;;;;;;10.31;68.96;102336.31;4919568;29;20051;-82
2023/12/28 01:25:37;;;;;;;10.82;7.80;;;;;;;10.09;68.68;102293.41;4918871;29;20370;-82
2023/12/28 01:28:07;;;;;;;10.98;7.28;;;;;;;10.41;68.96;102355.22;4881564;29;20133;-80
2023/12/28 01:30:34;;;;;;;13.45;8.38;;;;;;;10.41;68.26;102355.22;4900306;29;20418;-82
2023/12/28 01:33:01;;;;;;;12.93;8.93;;;;;;;10.05;68.91;102301.56;4900297;29;20049;-80
2023/12/28 01:35:29;;;;;;;10.35;7.82;;;;;;;10.31;68.41;102354.91;4901545;29;20134;-81
2023/12/28 01:38:00;;;;;;;13.53;8.20;;;;;;;10.37;68.58;102367.84;4918288;29;20051;-81
2023/12/28 01:40:27;;;;;;;9.82;8.20;;;;;;;10.32;68.37;102351.31;4902448;29;20061;-81
2023/12/28 01:42:56;;;;;;;14.25;8.93;;;;;;;10.39;68.48;102367.72;4879364;28;20338;-82
2023/12/28 01:45:23;;;;;;;18.52;9.38;;;;;;;10.17;68.89;102347.75;4920240;28;20042;-80
2023/12/28 01:47:52;;;;;;;16.00;9.55;;;;;;;10.26;68.64;102352.50;4945942;28;20606;-79
2023/12/28 01:50:20;;;;;;;13.30;10.57;;;;;;;10.25;68.50;102363.22;4917174;28;20874;-81
2023/12/28 01:52:51;;;;;;;13.98;11.32;;;;;;;10.12;68.84;102360.44;4952370;28;20051;-80
2023/12/28 01:55:19;;;;;;;13.23;10.10;;;;;;;9.60;68.58;102263.53;4919640;28;20047;-80
2023/12/28 01:57:48;;;;;;;14.50;11.25;;;;;;;10.24;68.89;102374.78;4933303;28;20503;-80
2023/12/28 02:00:15;;;;;;;16.83;10.52;;;;;;;10.24;68.40;102369.47;4910323;28;20059;-80
2023/12/28 02:02:44;;;;;;;14.18;9.05;;;;;;;10.15;68.31;102359.41;4924540;28;20391;-83
2023/12/28 02:05:17;;;;;;;12.23;9.00;;;;;;;10.06;68.79;102348.38;4944999;28;20058;-80
2023/12/28 02:07:47;;;;;;;13.07;8.32;;;;;;;9.80;68.55;102314.56;4965799;28;20295;-82
2023/12/28 02:10:17;;;;;;;15.40;8.68;;;;;;;9.97;68.15;102348.91;4951811;28;20054;-80
2023/12/28 02:12:44;;;;;;;16.38;8.90;;;;;;;9.27;68.54;102239.88;4947442;28;20043;-81
2023/12/28 02:15:11;;;;;;;13.93;9.25;;;;;;;9.94;68.52;102367.66;4945624;28;20050;-83
2023/12/28 02:18:05;;;;;;;17.52;10.05;;;;;;;9.76;68.76;102336.94;4957307;28;20055;-81
2023/12/28 02:20:34;;;;;;;13.73;10.95;;;;;;;9.66;69.29;102336.59;4954021;28;20043;-81
2023/12/28 02:23:01;;;;;;;17.60;10.70;;;;;;;9.85;69.15;102365.53;4948641;28;20090;-81
2023/12/28 02:25:27;;;;;;;17.63;12.15;;;;;;;9.71;69.81;102345.16;4928083;28;20062;-81
2023/12/28 02:27:54;;;;;;;18.10;12.82;;;;;;;9.68;69.73;102352.41;4929536;28;20058;-80
2023/12/28 02:30:23;;;;;;;16.52;11.10;;;;;;;9.77;69.90;102378.41;4937097;28;20059;-80
2023/12/28 02:32:50;;;;;;;17.67;12.57;;;;;;;9.36;69.89;102294.13;4935727;28;20402;-82
2023/12/28 02:35:24;;;;;;;16.90;12.52;;;;;;;9.71;70.17;102354.88;4955257;28;20596;-82
2023/12/28 02:37:56;;;;;;;17.33;13.82;;;;;;;9.47;70.04;102317.38;4939359;28;20053;-81
2023/12/28 02:40:24;;;;;;;22.80;14.80;;;;;;;9.75;70.43;102361.72;4956508;28;20042;-81
2023/12/28 02:42:51;;;;;;;25.20;15.05;;;;;;;9.59;70.84;102356.47;4960645;28;20042;-80
2023/12/28 02:45:19;;;;;;;24.77;16.23;;;;;;;9.31;71.78;102320.88;4937942;28;20104;-82
2023/12/28 02:47:46;;;;;;;20.70;14.73;;;;;;;9.21;71.54;102303.78;4944535;28;20573;-80
2023/12/28 02:50:12;;;;;;;26.65;17.35;;;;;;;9.54;71.93;102359.38;4951323;28;20056;-80
2023/12/28 02:52:39;;;;;;;26.30;17.95;;;;;;;9.48;71.96;102337.63;4957252;28;20050;-81
2023/12/28 02:55:09;;;;;;;28.00;19.10;;;;;;;9.51;72.93;102354.22;4943538;28;20058;-81
2023/12/28 02:57:37;;;;;;;26.02;17.77;;;;;;;9.45;72.71;102337.81;4937986;28;20166;-82
2023/12/28 03:00:07;;;;;;;24.95;18.42;;;;;;;8.93;73.46;102254.13;4971503;28;20520;-82
2023/12/28 03:02:36;;;;;;;25.45;17.50;;;;;;;9.37;73.42;102322.34;4972717;28;20518;-82
2023/12/28 03:05:04;;;;;;;29.63;19.85;;;;;;;8.85;72.66;102230.72;4962735;28;20050;-82
2023/12/28 03:07:39;;;;;;;30.42;19.05;;;;;;;9.11;73.36;102266.34;4930582;28;20517;-81
2023/12/28 03:10:07;;;;;;;25.88;20.05;;;;;;;9.35;73.75;102309.19;4929985;28;20051;-81
2023/12/28 03:12:35;;;;;;;26.67;19.33;;;;;;;9.14;74.35;102286.53;4933027;28;20053;-79
2023/12/28 03:15:03;;;;;;;31.58;20.10;;;;;;;9.40;74.59;102332.78;4950113;28;20112;-79
2023/12/28 03:17:36;;;;;;;28.83;21.45;;;;;;;9.35;74.91;102326.88;4920458;28;20142;-82
2023/12/28 03:20:09;;;;;;;30.83;20.08;;;;;;;9.28;75.09;102306.97;4920233;28;20118;-80
2023/12/28 03:22:35;;;;;;;29.70;19.52;;;;;;;9.12;75.44;102283.94;4937119;28;20046;-83
2023/12/28 03:25:03;;;;;;;31.85;20.60;;;;;;;9.33;75.50;102318.16;4920815;28;20428;-81
2023/12/28 03:27:29;;;;;;;28.48;20.83;;;;;;;9.22;75.61;102302.84;4917123;28;20514;-81
2023/12/28 03:30:02;;;;;;;26.30;20.05;;;;;;;9.35;75.84;102310.97;4897873;28;20046;-82
2023/12/28 03:32:29;;;;;;;26.42;21.08;;;;;;;9.26;75.93;102308.84;4928717;28;20055;-82
2023/12/28 03:34:58;;;;;;;35.42;21.50;;;;;;;9.23;75.92;102307.22;4905970;28;20063;-82
2023/12/28 03:37:25;;;;;;;29.02;20.85;;;;;;;9.10;76.29;102285.88;4912272;28;20051;-82
2023/12/28 03:39:52;;;;;;;28.23;20.27;;;;;;;9.22;76.17;102320.53;4923778;28;20066;-84
2023/12/28 03:42:19;;;;;;;26.05;19.15;;;;;;;9.07;76.54;102291.31;4915779;28;20058;-81
2023/12/28 03:44:45;;;;;;;24.85;19.80;;;;;;;8.94;76.66;102275.25;4947406;28;20050;-81
2023/12/28 03:47:15;;;;;;;32.90;20.90;;;;;;;9.15;76.75;102310.31;4923336;28;20118;-80
2023/12/28 03:49:44;;;;;;;30.55;20.17;;;;;;;9.14;76.71;102292.69;4916191;28;20138;-82
2023/12/28 03:52:11;;;;;;;26.08;18.75;;;;;;;9.31;76.26;102314.72;4947672;28;20055;-79
2023/12/28 03:54:39;;;;;;;31.13;19.48;;;;;;;8.96;76.85;102272.53;4922066;28;20061;-80
2023/12/28 03:57:10;;;;;;;27.33;19.33;;;;;;;8.86;76.76;102287.19;4917145;28;20051;-81
2023/12/28 03:59:41;;;;;;;26.63;18.90;;;;;;;9.06;76.87;102315.25;4936770;28;20793;-81
2023/12/28 04:02:09;;;;;;;;;;;;;;;8.95;76.49;102310.53;4928377;28;20094;-81
2023/12/28 04:04:39;;;;;;;26.42;20.02;;;;;;;8.91;77.15;102311.66;4942175;28;20370;-81
2023/12/28 04:07:09;;;;;;;23.90;17.15;;;;;;;8.56;77.31;102251.72;4917360;28;20804;-82
2023/12/28 04:09:35;;;;;;;25.83;18.48;;;;;;;8.51;77.09;102252.91;4928967;28;20081;-80
2023/12/28 04:12:02;;;;;;;29.75;18.50;;;;;;;8.70;77.72;102292.47;4917788;28;20208;-79
2023/12/28 04:14:32;;;;;;;26.48;19.35;;;;;;;8.87;76.87;102284.47;4931943;28;20054;-82
2023/12/28 04:17:00;;;;;;;26.25;17.50;;;;;;;9.07;76.54;102301.91;4922453;28;20167;-81
2023/12/28 04:19:26;;;;;;;24.70;17.60;;;;;;;9.02;76.40;102288.06;4953864;28;20047;-80
2023/12/28 04:21:55;;;;;;;26.02;17.65;;;;;;;8.80;76.49;102266.34;4925001;28;20055;-81
2023/12/28 04:24:22;;;;;;;28.38;17.98;;;;;;;8.82;76.54;102283.03;4945310;28;20058;-79
2023/12/28 04:26:49;;;;;;;28.88;17.90;;;;;;;8.39;77.03;102219.13;4934756;28;20074;-78
2023/12/28 04:29:16;;;;;;;22.02;17.52;;;;;;;8.63;77.17;102277.88;4915693;28;20756;-79
2023/12/28 04:31:43;;;;;;;23.20;17.02;;;;;;;8.74;77.34;102291.38;4910945;28;20106;-81
2023/12/28 04:34:11;;;;;;;24.67;17.17;;;;;;;8.72;77.41;102291.47;4916541;28;20102;-81
2023/12/28 04:36:46;;;;;;;26.52;18.48;;;;;;;8.61;77.82;102290.31;4955779;28;20047;-80
2023/12/28 04:39:13;;;;;;;25.52;17.02;;;;;;;8.42;77.73;102274.56;4920857;28;20442;-79
2023/12/28 04:41:40;;;;;;;23.92;17.77;;;;;;;7.75;77.37;102149.34;4924801;28;20050;-81
2023/12/28 04:44:09;;;;;;;28.30;19.45;;;;;;;8.54;77.96;102268.63;4893256;28;20543;-81
2023/12/28 04:46:44;;;;;;;26.00;18.45;;;;;;;8.73;77.15;102293.16;4957644;28;20197;-79
2023/12/28 04:49:11;;;;;;;26.52;18.75;;;;;;;8.68;77.05;102291.72;4939185;28;20053;-80
2023/12/28 04:51:43;;;;;;;25.42;18.20;;;;;;;8.48;76.97;102280.41;4930989;28;20047;-81
2023/12/28 04:54:10;;;;;;;32.63;19.30;;;;;;;8.42;76.94;102277.22;4935344;28;20046;-78
2023/12/28 04:56:38;;;;;;;26.67;19.38;;;;;;;8.53;77.40;102306.63;4953382;28;20038;-82
2023/12/28 04:59:05;;;;;;;23.38;18.33;;;;;;;8.60;78.08;102313.31;4939675;28;20046;-81
2023/12/28 05:01:32;;;;;;;32.55;18.60;;;;;;;8.54;77.94;102303.91;4914601;28;20601;-82
2023/12/28 05:04:07;;;;;;;27.27;18.50;;;;;;;8.44;77.00;102307.94;4942062;28;20414;-82
2023/12/28 05:06:37;;;;;;;27.48;18.15;;;;;;;8.41;77.89;102312.56;4933981;28;20057;-83
2023/12/28 05:09:08;;;;;;;25.98;17.98;;;;;;;8.01;78.18;102254.63;4942294;28;20105;-82
2023/12/28 05:11:36;;;;;;;29.20;19.50;;;;;;;8.27;78.30;102303.50;4934195;28;20486;-80
2023/12/28 05:14:06;;;;;;;24.90;19.20;;;;;;;8.28;78.08;102313.19;4939460;28;20390;-82
2023/12/28 05:16:42;;;;;;;27.88;18.77;;;;;;;8.31;77.78;102325.41;4910958;28;20310;-82
2023/12/28 05:19:22;;;;;;;24.70;18.10;;;;;;;8.16;78.61;102305.88;4942033;28;20446;-81
2023/12/28 05:21:48;;;;;;;25.67;19.33;;;;;;;8.11;78.47;102290.25;4939011;28;20502;-81
2023/12/28 05:24:15;;;;;;;27.00;17.85;;;;;;;7.95;78.77;102283.16;4938404;28;20046;-81
2023/12/28 05:26:46;;;;;;;25.92;17.17;;;;;;;8.17;78.36;102325.25;4915530;28;20522;-82
2023/12/28 05:29:12;;;;;;;30.80;19.20;;;;;;;7.86;78.87;102264.22;4953398;28;20363;-78
2023/12/28 05:31:39;;;;;;;23.45;17.38;;;;;;;8.18;78.33;102317.25;4942146;28;20062;-80
2023/12/28 05:34:06;;;;;;;23.55;17.77;;;;;;;7.59;78.85;102221.50;4968801;28;20113;-80
2023/12/28 05:36:33;;;;;;;22.90;15.93;;;;;;;8.10;78.08;102300.88;4959249;28;20430;-82
2023/12/28 05:39:06;;;;;;;24.13;16.73;;;;;;;7.95;78.15;102280.53;4928750;28;20054;-81
2023/12/28 05:41:47;;;;;;;23.83;16.63;;;;;;;8.04;78.10;102298.56;4931238;28;20054;-81
2023/12/28 05:44:14;;;;;;;19.05;13.30;;;;;;;8.06;77.48;102312.59;4934537;28;20050;-80
2023/12/28 05:46:44;;;;;;;14.48;11.55;;;;;;;7.66;76.68;102251.97;4964767;28;20054;-81
2023/12/28 05:49:11;;;;;;;17.20;11.50;;;;;;;8.09;76.68;102325.66;4938358;28;20458;-80
2023/12/28 05:51:43;;;;;;;13.23;10.52;;;;;;;8.08;76.67;102329.19;4940755;28;20046;-78
2023/12/28 05:54:10;;;;;;;14.70;9.85;;;;;;;7.87;76.62;102283.56;4930817;28;20137;-80
2023/12/28 05:56:37;;;;;;;14.27;9.15;;;;;;;8.21;76.72;102319.72;4942713;28;20109;-79
2023/12/28 05:59:06;;;;;;;13.10;9.73;;;;;;;7.63;76.21;102228.34;4949890;28;20117;-81
2023/12/28 06:01:42;;;;;;;15.77;9.68;;;;;;;8.20;76.22;102330.38;4965450;28;20136;-79
2023/12/28 06:04:08;;;;;;;16.65;10.00;;;;;;;8.12;76.66;102322.84;4966539;28;20085;-81
2023/12/28 06:06:36;;;;;;;16.35;10.13;;;;;;;8.16;76.71;102319.09;4950764;28;20137;-80
2023/12/28 06:09:03;;;;;;;16.10;9.82;;;;;;;7.91;76.61;102272.75;4928883;28;20102;-80
2023/12/28 06:11:30;;;;;;;17.67;11.10;;;;;;;8.05;76.92;102284.41;4926519;28;20065;-81
2023/12/28 06:13:57;;;;;;;15.95;10.95;;;;;;;8.21;76.74;102301.19;4943760;28;20055;-81
2023/12/28 06:16:30;;;;;;;13.75;10.50;;;;;;;8.19;76.12;102297.78;4937733;28;20050;-81
2023/12/28 06:18:57;;;;;;;12.65;10.60;;;;;;;8.22;76.71;102305.53;4947316;28;20437;-81
2023/12/28 06:21:24;;;;;;;17.00;10.82;;;;;;;8.13;76.62;102309.53;4928600;28;20082;-80
2023/12/28 06:23:52;;;;;;;13.60;10.05;;;;;;;7.90;76.46;102286.03;4927405;28;20059;-80
2023/12/28 06:26:19;;;;;;;20.92;11.48;;;;;;;7.52;76.85;102227.16;4926351;28;20619;-80
2023/12/28 06:28:50;;;;;;;15.70;12.02;;;;;;;7.82;77.13;102297.00;4947189;28;20046;-81
2023/12/28 06:31:16;;;;;;;15.40;11.80;;;;;;;7.66;77.11;102274.91;4921693;28;20199;-80
2023/12/28 06:33:44;;;;;;;21.92;12.85;;;;;;;7.63;76.89;102277.72;4927878;28;20061;-81
2023/12/28 06:36:12;;;;;;;18.35;12.73;;;;;;;7.99;76.84;102330.53;4945692;28;20786;-80
2023/12/28 06:38:39;;;;;;;21.35;12.30;;;;;;;7.79;77.15;102283.97;4933014;28;20053;-80
2023/12/28 06:41:12;;;;;;;18.35;12.15;;;;;;;7.89;77.05;102322.22;4931230;28;20258;-81
2023/12/28 06:43:39;;;;;;;17.17;11.73;;;;;;;7.92;76.68;102337.91;4926733;28;20078;-77
2023/12/28 06:46:06;;;;;;;17.65;13.32;;;;;;;7.94;77.67;102329.94;4930371;28;20102;-81
2023/12/28 06:48:34;;;;;;;15.90;12.68;;;;;;;7.60;77.57;102283.16;4929554;28;20047;-81
2023/12/28 06:51:01;;;;;;;16.88;11.82;;;;;;;7.90;77.12;102349.50;4945942;28;20483;-81
2023/12/28 06:53:30;;;;;;;15.90;11.65;;;;;;;7.86;77.61;102332.06;4944718;28;20131;-82
2023/12/28 06:56:02;;;;;;;16.50;11.55;;;;;;;7.87;77.40;102337.31;4966110;28;20046;-81
2023/12/28 06:58:29;;;;;;;21.60;12.48;;;;;;;7.09;77.27;102206.38;4947662;28;20066;-80
2023/12/28 07:01:00;;;;;;;21.25;12.90;;;;;;;7.68;76.99;102323.28;4941725;28;20057;-82
2023/12/28 07:03:32;;;;;;;20.90;11.57;;;;;;;7.82;77.65;102349.91;4948653;28;20459;-80
2023/12/28 07:05:59;;;;;;;16.73;10.43;;;;;;;7.48;77.51;102292.56;4948518;28;20054;-80
2023/12/28 07:08:26;;;;;;;19.52;11.68;;;;;;;7.46;77.20;102292.63;4942732;28;20654;-80
2023/12/28 07:10:57;;;;;;;16.30;11.52;;;;;;;7.78;77.13;102340.41;4930632;28;20055;-81
2023/12/28 07:13:24;;;;;;;17.70;13.18;;;;;;;7.90;77.56;102354.81;4947055;28;20134;-80
2023/12/28 07:15:51;;;;;;;17.98;10.90;;;;;;;7.84;77.29;102331.28;4939432;28;20502;-82
2023/12/28 07:18:19;;;;;;;18.42;10.52;;;;;;;8.04;77.32;102367.34;4946343;28;20149;-83
2023/12/28 07:20:46;;;;;;;25.27;11.38;;;;;;;7.89;77.74;102343.38;4922250;28;20086;-82
2023/12/28 07:23:13;;;;;;;14.90;9.10;;;;;;;8.03;76.80;102365.63;4921840;28;20481;-80
2023/12/28 07:25:40;;;;;;;17.15;9.55;;;;;;;7.73;76.77;102325.69;4941278;28;20502;-81
2023/12/28 07:28:07;;;;;;;13.68;10.32;;;;;;;8.12;76.70;102370.44;4939983;28;20126;-82
2023/12/28 07:30:33;;;;;;;14.65;9.07;;;;;;;7.78;76.48;102310.47;4923505;28;20105;-82
2023/12/28 07:33:00;;;;;;;12.98;8.80;;;;;;;7.78;77.08;102316.59;4921382;28;20051;-83
2023/12/28 07:35:27;;;;;;;13.88;8.52;;;;;;;8.11;77.10;102369.59;4937420;28;20381;-82
2023/12/28 07:37:54;;;;;;;13.38;9.63;;;;;;;8.20;76.91;102381.50;4941458;28;20050;-82
2023/12/28 07:40:21;;;;;;;16.92;9.65;;;;;;;8.24;76.77;102380.41;4937591;28;20596;-79
2023/12/28 07:42:51;;;;;;;16.33;9.35;;;;;;;8.14;77.29;102355.34;4922790;28;20244;-82
2023/12/28 07:45:22;;;;;;;15.80;9.52;;;;;;;8.30;77.42;102379.22;4931561;28;20046;-83
2023/12/28 07:47:52;;;;;;;;;;;;;;;8.30;76.38;102384.53;4919874;28;20525;-81
2023/12/28 07:50:27;;;;;;;15.63;9.80;;;;;;;8.32;76.29;102377.38;4946872;28;19926;-79
2023/12/28 07:52:54;;;;;;;18.60;10.52;;;;;;;8.41;76.54;102387.53;4919810;28;20875;-82
2023/12/28 07:55:21;;;;;;;31.05;10.90;;;;;;;8.47;75.79;102391.63;4923574;28;20051;-81
2023/12/28 07:57:52;;;;;;;20.52;13.60;;;;;;;8.44;75.66;102373.28;4953042;28;20077;-83
2023/12/28 08:00:19;;;;;;;27.00;14.63;;;;;;;8.61;75.81;102380.34;4919574;28;20051;-82
2023/12/28 08:02:46;;;;;;;30.50;14.48;;;;;;;8.47;75.27;102354.56;4947010;28;20057;-81
2023/12/28 08:05:13;;;;;;;29.67;16.85;;;;;;;8.76;75.07;102385.69;4937566;28;20054;-81
2023/12/28 08:07:39;;;;;;;30.63;16.83;;;;;;;8.25;75.32;102297.47;4959331;28;20391;-81
2023/12/28 08:10:07;;;;;;;21.58;15.85;;;;;;;8.64;75.06;102359.88;4932382;28;20692;-81
2023/12/28 08:12:34;;;;;;;23.05;16.77;;;;;;;8.80;75.67;102383.72;4920859;28;20125;-81
2023/12/28 08:15:01;;;;;;;29.52;18.48;;;;;;;8.98;75.47;102392.47;4925975;28;20066;-81
2023/12/28 08:17:27;;;;;;;32.67;19.75;;;;;;;8.73;74.73;102335.53;4921953;28;20549;-79
2023/12/28 08:19:55;;;;;;;29.08;18.67;;;;;;;9.11;75.05;102390.88;4940874;28;20412;-83
2023/12/28 08:22:22;;;;;;;30.70;21.08;;;;;;;9.16;75.02;102393.28;4939973;28;20459;-81
2023/12/28 08:24:52;;;;;;;27.70;21.17;;;;;;;9.13;74.85;102393.47;4919399;28;20054;-83
2023/12/28 08:27:20;;;;;;;30.65;21.83;;;;;;;9.24;74.98;102406.13;4922216;28;20053;-83
2023/12/28 08:29:50;;;;;;;30.98;22.67;;;;;;;9.10;74.93;102375.94;4921291;28;20047;-83
2023/12/28 08:32:19;;;;;;;30.75;23.55;;;;;;;9.26;74.51;102386.53;4941462;28;20059;-82
2023/12/28 08:34:47;;;;;;;35.50;24.40;;;;;;;9.32;74.96;102395.94;4928980;28;20051;-81
2023/12/28 08:37:14;;;;;;;34.55;23.85;;;;;;;9.28;74.68;102379.38;4946309;28;20050;-77
2023/12/28 08:39:41;;;;;;;30.48;23.55;;;;;;;9.44;74.38;102400.56;4935229;28;20046;-81
2023/12/28 08:42:08;;;;;;;33.72;24.10;;;;;;;9.54;74.34;102401.78;4918625;28;20183;-81
2023/12/28 08:44:36;;;;;;;34.25;24.30;;;;;;;9.52;74.26;102408.13;4919298;28;20054;-81
2023/12/28 08:47:03;;;;;;;31.85;24.55;;;;;;;9.43;74.25;102384.75;4919093;28;20166;-80
2023/12/28 08:49:30;;;;;;;42.33;28.58;;;;;;;9.13;74.58;102343.97;4923344;28;20047;-81
2023/12/28 08:52:00;;;;;;;43.28;27.17;;;;;;;9.04;74.55;102325.94;4935909;28;20058;-80
2023/12/28 08:54:27;;;;;;;41.20;27.88;;;;;;;9.20;74.58;102360.41;4920146;28;20485;-80
2023/12/28 08:56:54;;;;;;;36.60;24.92;;;;;;;9.38;75.49;102398.28;4914954;28;20587;-80
2023/12/28 08:59:30;;;;;;;38.33;24.98;;;;;;;9.42;74.77;102405.13;4910480;28;20050;-81
2023/12/28 09:01:57;;;;;;;41.90;27.45;;;;;;;9.54;74.74;102423.00;4921571;28;20268;-81
2023/12/28 09:04:24;;;;;;;48.65;31.75;;;;;;;9.58;75.20;102423.66;4931325;28;20054;-80
2023/12/28 09:06:51;;;;;;;40.72;28.48;;;;;;;9.49;75.55;102419.75;4937806;28;20475;-80
2023/12/28 09:09:22;;;;;;;42.90;30.27;;;;;;;9.36;75.52;102381.59;4937110;28;20058;-81
2023/12/28 09:11:51;;;;;;;45.20;34.35;;;;;;;9.49;75.34;102397.66;4920698;28;20046;-80
2023/12/28 09:14:18;;;;;;;47.88;35.08;;;;;;;9.47;75.97;102388.97;4942340;28;20065;-79
2023/12/28 09:16:47;;;;;;;53.38;37.42;;;;;;;9.30;75.93;102358.94;4936660;28;20638;-80
2023/12/28 09:19:14;;;;;;;50.50;35.83;;;;;;;9.79;76.08;102433.06;4952359;28;20050;-79
2023/12/28 09:21:41;;;;;;;50.13;36.17;;;;;;;9.87;76.33;102419.38;4944512;28;20310;-80
2023/12/28 09:24:08;;;;;;;57.25;38.55;;;;;;;9.84;76.85;102409.78;4944039;28;20418;-81
2023/12/28 09:26:35;;;;;;;51.22;36.38;;;;;;;9.75;76.23;102382.94;4935082;28;20275;-80
2023/12/28 09:29:04;;;;;;;53.13;37.72;;;;;;;10.00;76.16;102417.75;4942955;28;20042;-80
2023/12/28 09:31:31;;;;;;;52.50;36.65;;;;;;;10.16;75.47;102425.66;4936282;28;20066;-81
2023/12/28 09:33:59;;;;;;;58.83;37.38;;;;;;;10.00;75.01;102388.56;4941438;28;20051;-82
2023/12/28 09:36:26;;;;;;;51.22;38.00;;;;;;;10.24;75.15;102417.25;4951046;28;20058;-80
2023/12/28 09:38:57;;;;;;;52.30;35.88;;;;;;;10.31;74.57;102402.69;4936088;28;20414;-81
2023/12/28 09:41:33;;;;;;;52.08;35.90;;;;;;;10.38;74.85;102412.00;4944748;28;20082;-81
2023/12/28 09:44:05;;;;;;;52.33;37.92;;;;;;;10.44;74.18;102409.00;4952170;28;20074;-80
2023/12/28 09:46:32;;;;;;;51.53;36.72;;;;;;;10.11;74.30;102332.19;4940647;28;20042;-80
2023/12/28 09:48:59;;;;;;;49.30;33.63;;;;;;;10.61;73.97;102401.84;4945635;28;20130;-80
2023/12/28 09:51:26;;;;;;;50.30;34.83;;;;;;;10.46;73.58;102390.31;4942263;28;20047;-81
2023/12/28 09:53:54;;;;;;;53.63;35.45;;;;;;;10.55;73.56;102396.88;4946985;28;20080;-82
2023/12/28 09:56:24;;;;;;;60.10;39.95;;;;;;;10.70;73.40;102409.22;4976711;28;20250;-82
2023/12/28 09:58:58;;;;;;;51.87;37.90;;;;;;;10.71;73.41;102389.69;4946037;28;20294;-80
2023/12/28 10:01:26;;;;;;;50.22;36.58;;;;;;;10.73;73.35;102387.81;4949590;28;20062;-81
2023/12/28 10:03:53;;;;;;;51.88;35.65;;;;;;;10.63;73.14;102374.22;4946128;28;20063;-80
2023/12/28 10:06:21;;;;;;;53.75;35.78;;;;;;;10.73;72.67;102377.19;4922536;28;20510;-80
2023/12/28 10:08:51;;;;;;;53.33;35.20;;;;;;;10.63;73.14;102387.50;4930919;28;20534;-80
2023/12/28 10:11:19;;;;;;;56.15;36.17;;;;;;;10.11;73.96;102302.16;4946280;28;20074;-80
2023/12/28 10:13:48;;;;;;;52.28;37.13;;;;;;;10.52;74.07;102374.03;4923367;28;20057;-83
2023/12/28 10:16:16;;;;;;;50.53;38.53;;;;;;;10.66;74.58;102383.81;4901345;29;20551;-81
2023/12/28 10:18:45;;;;;;;54.28;38.70;;;;;;;10.67;74.72;102372.22;4914984;29;20423;-82
2023/12/28 10:21:18;;;;;;;62.47;40.72;;;;;;;10.64;74.27;102345.88;4918846;29;20418;-82
2023/12/28 10:23:45;;;;;;;52.10;38.35;;;;;;;10.58;73.91;102333.81;4922398;29;20137;-81
2023/12/28 10:26:12;;;;;;;51.85;37.83;;;;;;;10.73;74.19;102355.94;4915723;29;20063;-80
2023/12/28 10:28:40;;;;;;;49.80;36.65;;;;;;;10.73;74.15;102355.94;4915988;29;20061;-82
2023/12/28 10:31:14;;;;;;;53.17;37.38;;;;;;;10.75;73.50;102337.22;4915752;28;20568;-81
2023/12/28 10:33:45;;;;;;;51.75;37.90;;;;;;;10.63;73.99;102315.81;4925787;29;20047;-81
2023/12/28 10:36:16;;;;;;;53.63;36.60;;;;;;;10.82;73.76;102343.84;4914901;29;20154;-81
2023/12/28 10:38:45;;;;;;;50.97;36.53;;;;;;;10.99;73.17;102340.16;4905119;29;20055;-81
2023/12/28 10:41:13;;;;;;;48.63;36.08;;;;;;;10.79;73.20;102313.03;4949108;28;20464;-81
2023/12/28 10:43:50;;;;;;;51.47;35.08;;;;;;;10.56;73.54;102263.13;4925422;28;20483;-81
2023/12/28 10:46:27;;;;;;;43.55;32.92;;;;;;;11.05;72.26;102329.16;4935221;28;20070;-81
2023/12/28 10:49:14;;;;;;;48.55;34.67;;;;;;;10.94;72.95;102307.69;4936881;28;20047;-79
2023/12/28 10:51:48;;;;;;;44.42;33.60;;;;;;;10.97;72.79;102310.16;4939175;28;20047;-81
2023/12/28 10:54:16;;;;;;;56.00;37.17;;;;;;;11.05;72.83;102337.97;4923494;29;20126;-79
2023/12/28 10:56:55;;;;;;;55.88;36.90;;;;;;;10.67;72.96;102265.97;4939964;28;20491;-80
2023/12/28 10:59:22;;;;;;;50.72;36.47;;;;;;;11.18;72.42;102324.75;4931627;28;20061;-79
2023/12/28 11:01:56;;;;;;;50.10;36.72;;;;;;;11.16;72.76;102326.63;4939117;28;20047;-81
2023/12/28 11:04:48;;;;;;;53.85;33.97;;;;;;;11.11;72.46;102307.47;4943182;28;20137;-80
2023/12/28 11:07:18;;;;;;;47.13;34.92;;;;;;;11.18;72.46;102319.41;4954932;28;20510;-79
2023/12/28 11:09:45;;;;;;;54.75;35.75;;;;;;;11.17;72.96;102311.56;4934048;28;20357;-80
2023/12/28 11:12:13;;;;;;;53.00;35.85;;;;;;;11.21;72.26;102321.88;4939286;28;20046;-80
2023/12/28 11:14:41;;;;;;;56.47;36.50;;;;;;;10.99;72.71;102276.38;4940800;28;20672;-81
2023/12/28 11:17:20;;;;;;;52.05;34.88;;;;;;;11.26;72.79;102308.28;4930027;28;20478;-81
2023/12/28 11:19:48;;;;;;;51.55;36.17;;;;;;;11.03;71.89;102264.59;4939914;28;20086;-81
2023/12/28 11:22:15;;;;;;;55.22;36.50;;;;;;;11.31;71.96;102307.06;4948058;28;20058;-79
2023/12/28 11:24:42;;;;;;;53.60;36.00;;;;;;;11.34;72.40;102304.19;4930361;28;20649;-77